sensor_id;sensor_type;location;lat;lon;timestamp;temperature;humidity
24902;DHT22;31328;51.402;0.016;2022-07-23T00:01:18;17.60;91.70
24902;DHT22;31328;51.402;0.016;2022-07-23T00:03:44;17.50;91.70
24902;DHT22;31328;51.402;0.016;2022-07-23T00:06:11;17.60;91.80
24902;DHT22;31328;51.402;0.016;2022-07-23T00:08:37;17.60;91.80
24902;DHT22;31328;51.402;0.016;2022-07-23T00:11:04;17.60;91.80
24902;DHT22;31328;51.402;0.016;2022-07-23T00:13:30;17.60;91.80
24902;DHT22;31328;51.402;0.016;2022-07-23T00:15:57;17.70;91.80
24902;DHT22;31328;51.402;0.016;2022-07-23T00:18:23;17.70;91.80
24902;DHT22;31328;51.402;0.016;2022-07-23T00:20:51;17.70;91.80
24902;DHT22;31328;51.402;0.016;2022-07-23T00:23:17;17.70;91.80
24902;DHT22;31328;51.402;0.016;2022-07-23T00:25:44;17.70;91.80
24902;DHT22;31328;51.402;0.016;2022-07-23T00:28:11;17.80;91.80
24902;DHT22;31328;51.402;0.016;2022-07-23T00:30:38;17.80;91.70
24902;DHT22;31328;51.402;0.016;2022-07-23T00:33:06;17.80;91.80
24902;DHT22;31328;51.402;0.016;2022-07-23T00:35:36;17.80;91.80
24902;DHT22;31328;51.402;0.016;2022-07-23T00:38:04;17.80;91.80
24902;DHT22;31328;51.402;0.016;2022-07-23T00:40:31;17.90;91.80
24902;DHT22;31328;51.402;0.016;2022-07-23T00:42:58;17.90;91.70
24902;DHT22;31328;51.402;0.016;2022-07-23T00:45:26;17.90;91.70
24902;DHT22;31328;51.402;0.016;2022-07-23T00:47:52;17.90;91.70
24902;DHT22;31328;51.402;0.016;2022-07-23T00:50:19;18.00;91.70
24902;DHT22;31328;51.402;0.016;2022-07-23T00:52:46;17.90;91.70
24902;DHT22;31328;51.402;0.016;2022-07-23T00:55:13;18.00;91.70
24902;DHT22;31328;51.402;0.016;2022-07-23T00:57:40;18.00;91.70
24902;DHT22;31328;51.402;0.016;2022-07-23T01:00:12;17.90;91.70
24902;DHT22;31328;51.402;0.016;2022-07-23T01:02:39;18.00;91.70
24902;DHT22;31328;51.402;0.016;2022-07-23T01:05:06;18.00;91.70
24902;DHT22;31328;51.402;0.016;2022-07-23T01:07:34;18.00;91.70
24902;DHT22;31328;51.402;0.016;2022-07-23T01:10:01;17.90;91.70
24902;DHT22;31328;51.402;0.016;2022-07-23T01:12:28;17.90;91.70
24902;DHT22;31328;51.402;0.016;2022-07-23T01:14:59;17.90;91.70
24902;DHT22;31328;51.402;0.016;2022-07-23T01:17:28;17.90;91.80
24902;DHT22;31328;51.402;0.016;2022-07-23T01:19:54;17.90;91.80
24902;DHT22;31328;51.402;0.016;2022-07-23T01:22:21;17.90;91.80
24902;DHT22;31328;51.402;0.016;2022-07-23T01:24:48;17.80;91.80
24902;DHT22;31328;51.402;0.016;2022-07-23T01:27:17;17.80;91.90
24902;DHT22;31328;51.402;0.016;2022-07-23T01:29:47;17.70;91.90
24902;DHT22;31328;51.402;0.016;2022-07-23T01:32:18;17.70;92.00
24902;DHT22;31328;51.402;0.016;2022-07-23T01:34:44;17.70;92.00
24902;DHT22;31328;51.402;0.016;2022-07-23T01:37:11;17.60;92.10
24902;DHT22;31328;51.402;0.016;2022-07-23T01:39:38;17.60;92.20
24902;DHT22;31328;51.402;0.016;2022-07-23T01:42:05;17.50;92.20
24902;DHT22;31328;51.402;0.016;2022-07-23T01:44:33;17.50;92.20
24902;DHT22;31328;51.402;0.016;2022-07-23T01:46:59;17.40;92.30
24902;DHT22;31328;51.402;0.016;2022-07-23T01:49:26;17.40;92.40
24902;DHT22;31328;51.402;0.016;2022-07-23T01:52:11;17.40;92.40
24902;DHT22;31328;51.402;0.016;2022-07-23T01:54:42;17.40;92.60
24902;DHT22;31328;51.402;0.016;2022-07-23T01:57:09;17.40;92.50
24902;DHT22;31328;51.402;0.016;2022-07-23T01:59:35;17.40;92.50
24902;DHT22;31328;51.402;0.016;2022-07-23T02:02:03;17.40;92.50
24902;DHT22;31328;51.402;0.016;2022-07-23T02:04:31;17.40;92.50
24902;DHT22;31328;51.402;0.016;2022-07-23T02:06:59;17.40;92.60
24902;DHT22;31328;51.402;0.016;2022-07-23T02:09:27;17.40;92.60
24902;DHT22;31328;51.402;0.016;2022-07-23T02:11:53;17.50;92.60
24902;DHT22;31328;51.402;0.016;2022-07-23T02:14:20;17.40;92.60
24902;DHT22;31328;51.402;0.016;2022-07-23T02:16:46;17.50;92.60
24902;DHT22;31328;51.402;0.016;2022-07-23T02:19:15;17.50;92.90
24902;DHT22;31328;51.402;0.016;2022-07-23T02:21:41;17.50;92.60
24902;DHT22;31328;51.402;0.016;2022-07-23T02:24:08;17.50;92.70
24902;DHT22;31328;51.402;0.016;2022-07-23T02:26:34;17.50;92.70
24902;DHT22;31328;51.402;0.016;2022-07-23T02:29:04;17.50;92.80
24902;DHT22;31328;51.402;0.016;2022-07-23T02:31:32;17.50;92.80
24902;DHT22;31328;51.402;0.016;2022-07-23T02:33:59;17.40;92.80
24902;DHT22;31328;51.402;0.016;2022-07-23T02:36:27;17.40;92.80
24902;DHT22;31328;51.402;0.016;2022-07-23T02:38:54;17.40;92.80
24902;DHT22;31328;51.402;0.016;2022-07-23T02:41:20;17.40;92.90
24902;DHT22;31328;51.402;0.016;2022-07-23T02:43:47;17.40;93.00
24902;DHT22;31328;51.402;0.016;2022-07-23T02:46:14;17.40;92.90
24902;DHT22;31328;51.402;0.016;2022-07-23T02:48:41;17.40;92.90
24902;DHT22;31328;51.402;0.016;2022-07-23T02:51:07;17.40;92.90
24902;DHT22;31328;51.402;0.016;2022-07-23T02:53:39;17.40;93.00
24902;DHT22;31328;51.402;0.016;2022-07-23T02:56:05;17.30;93.00
24902;DHT22;31328;51.402;0.016;2022-07-23T02:58:32;17.30;93.00
24902;DHT22;31328;51.402;0.016;2022-07-23T03:00:58;17.30;93.10
24902;DHT22;31328;51.402;0.016;2022-07-23T03:03:26;17.30;93.10
24902;DHT22;31328;51.402;0.016;2022-07-23T03:05:52;17.30;93.20
24902;DHT22;31328;51.402;0.016;2022-07-23T03:08:18;17.30;93.20
24902;DHT22;31328;51.402;0.016;2022-07-23T03:10:50;17.20;93.20
24902;DHT22;31328;51.402;0.016;2022-07-23T03:13:16;17.20;93.20
24902;DHT22;31328;51.402;0.016;2022-07-23T03:15:43;17.20;93.20
24902;DHT22;31328;51.402;0.016;2022-07-23T03:18:09;17.20;93.30
24902;DHT22;31328;51.402;0.016;2022-07-23T03:20:36;17.20;93.30
24902;DHT22;31328;51.402;0.016;2022-07-23T03:23:02;17.20;93.40
24902;DHT22;31328;51.402;0.016;2022-07-23T03:25:30;17.10;93.30
24902;DHT22;31328;51.402;0.016;2022-07-23T03:27:56;17.20;93.40
24902;DHT22;31328;51.402;0.016;2022-07-23T03:30:24;17.20;93.50
24902;DHT22;31328;51.402;0.016;2022-07-23T03:32:50;17.10;93.50
24902;DHT22;31328;51.402;0.016;2022-07-23T03:35:17;17.10;93.50
24902;DHT22;31328;51.402;0.016;2022-07-23T03:37:51;17.10;93.60
24902;DHT22;31328;51.402;0.016;2022-07-23T03:40:17;17.10;93.50
24902;DHT22;31328;51.402;0.016;2022-07-23T03:42:44;17.10;93.50
24902;DHT22;31328;51.402;0.016;2022-07-23T03:45:12;17.10;93.60
24902;DHT22;31328;51.402;0.016;2022-07-23T03:47:39;17.10;93.60
24902;DHT22;31328;51.402;0.016;2022-07-23T03:50:05;17.10;93.60
24902;DHT22;31328;51.402;0.016;2022-07-23T03:52:32;17.10;93.60
24902;DHT22;31328;51.402;0.016;2022-07-23T03:54:59;17.10;93.70
24902;DHT22;31328;51.402;0.016;2022-07-23T03:57:25;17.10;93.70
24902;DHT22;31328;51.402;0.016;2022-07-23T03:59:53;17.10;93.80
24902;DHT22;31328;51.402;0.016;2022-07-23T04:02:19;17.10;93.80
24902;DHT22;31328;51.402;0.016;2022-07-23T04:04:46;17.10;94.20
24902;DHT22;31328;51.402;0.016;2022-07-23T04:07:13;17.10;93.90
24902;DHT22;31328;51.402;0.016;2022-07-23T04:09:40;17.10;93.90
24902;DHT22;31328;51.402;0.016;2022-07-23T04:12:07;17.00;93.90
24902;DHT22;31328;51.402;0.016;2022-07-23T04:14:34;17.00;94.00
24902;DHT22;31328;51.402;0.016;2022-07-23T04:17:01;17.00;94.10
24902;DHT22;31328;51.402;0.016;2022-07-23T04:19:27;17.00;94.10
24902;DHT22;31328;51.402;0.016;2022-07-23T04:22:01;17.00;94.10
24902;DHT22;31328;51.402;0.016;2022-07-23T04:24:28;17.00;94.20
24902;DHT22;31328;51.402;0.016;2022-07-23T04:26:55;17.00;94.20
24902;DHT22;31328;51.402;0.016;2022-07-23T04:29:21;17.00;94.30
24902;DHT22;31328;51.402;0.016;2022-07-23T04:31:49;17.00;94.40
24902;DHT22;31328;51.402;0.016;2022-07-23T04:34:18;17.00;94.30
24902;DHT22;31328;51.402;0.016;2022-07-23T04:36:44;17.00;94.70
24902;DHT22;31328;51.402;0.016;2022-07-23T04:39:11;17.00;94.40
24902;DHT22;31328;51.402;0.016;2022-07-23T04:41:37;17.00;94.50
24902;DHT22;31328;51.402;0.016;2022-07-23T04:44:04;17.00;94.50
24902;DHT22;31328;51.402;0.016;2022-07-23T04:46:31;17.10;94.50
24902;DHT22;31328;51.402;0.016;2022-07-23T04:48:58;17.10;94.50
24902;DHT22;31328;51.402;0.016;2022-07-23T04:51:24;17.10;94.50
24902;DHT22;31328;51.402;0.016;2022-07-23T04:53:51;17.10;94.50
24902;DHT22;31328;51.402;0.016;2022-07-23T04:56:17;17.20;94.60
24902;DHT22;31328;51.402;0.016;2022-07-23T04:58:44;17.20;94.50
24902;DHT22;31328;51.402;0.016;2022-07-23T05:01:11;17.20;94.50
24902;DHT22;31328;51.402;0.016;2022-07-23T05:03:37;17.20;94.50
24902;DHT22;31328;51.402;0.016;2022-07-23T05:06:04;17.20;94.60
24902;DHT22;31328;51.402;0.016;2022-07-23T05:08:31;17.20;94.60
24902;DHT22;31328;51.402;0.016;2022-07-23T05:10:59;17.20;94.60
24902;DHT22;31328;51.402;0.016;2022-07-23T05:13:28;17.20;94.60
24902;DHT22;31328;51.402;0.016;2022-07-23T05:15:54;17.30;94.70
24902;DHT22;31328;51.402;0.016;2022-07-23T05:18:22;17.20;94.60
24902;DHT22;31328;51.402;0.016;2022-07-23T05:20:48;17.20;94.70
24902;DHT22;31328;51.402;0.016;2022-07-23T05:23:19;17.30;94.80
24902;DHT22;31328;51.402;0.016;2022-07-23T05:25:45;17.30;94.70
24902;DHT22;31328;51.402;0.016;2022-07-23T05:28:12;17.30;94.80
24902;DHT22;31328;51.402;0.016;2022-07-23T05:30:39;17.30;94.70
24902;DHT22;31328;51.402;0.016;2022-07-23T05:33:09;17.30;94.70
24902;DHT22;31328;51.402;0.016;2022-07-23T05:35:36;17.30;95.00
24902;DHT22;31328;51.402;0.016;2022-07-23T05:38:23;17.40;95.10
24902;DHT22;31328;51.402;0.016;2022-07-23T05:40:50;17.40;94.70
24902;DHT22;31328;51.402;0.016;2022-07-23T05:43:17;17.40;94.70
24902;DHT22;31328;51.402;0.016;2022-07-23T05:45:44;17.40;94.70
24902;DHT22;31328;51.402;0.016;2022-07-23T05:48:10;17.50;94.70
24902;DHT22;31328;51.402;0.016;2022-07-23T05:50:47;17.50;94.70
24902;DHT22;31328;51.402;0.016;2022-07-23T05:53:24;17.60;94.60
24902;DHT22;31328;51.402;0.016;2022-07-23T05:56:00;17.60;94.60
24902;DHT22;31328;51.402;0.016;2022-07-23T05:58:26;17.60;94.50
24902;DHT22;31328;51.402;0.016;2022-07-23T06:00:53;17.70;94.50
24902;DHT22;31328;51.402;0.016;2022-07-23T06:03:19;17.70;94.40
24902;DHT22;31328;51.402;0.016;2022-07-23T06:05:46;17.70;94.40
24902;DHT22;31328;51.402;0.016;2022-07-23T06:08:13;17.80;94.40
24902;DHT22;31328;51.402;0.016;2022-07-23T06:10:39;17.80;94.50
24902;DHT22;31328;51.402;0.016;2022-07-23T06:13:06;17.80;94.50
24902;DHT22;31328;51.402;0.016;2022-07-23T06:15:32;17.90;94.50
24902;DHT22;31328;51.402;0.016;2022-07-23T06:17:58;17.90;94.40
24902;DHT22;31328;51.402;0.016;2022-07-23T06:20:25;17.90;94.40
24902;DHT22;31328;51.402;0.016;2022-07-23T06:22:52;18.00;94.40
24902;DHT22;31328;51.402;0.016;2022-07-23T06:25:18;18.00;94.30
24902;DHT22;31328;51.402;0.016;2022-07-23T06:27:47;18.10;94.20
24902;DHT22;31328;51.402;0.016;2022-07-23T06:30:14;18.10;94.20
24902;DHT22;31328;51.402;0.016;2022-07-23T06:32:42;18.20;94.20
24902;DHT22;31328;51.402;0.016;2022-07-23T06:35:08;18.20;94.10
24902;DHT22;31328;51.402;0.016;2022-07-23T06:37:34;18.20;94.10
24902;DHT22;31328;51.402;0.016;2022-07-23T06:40:02;18.30;93.90
24902;DHT22;31328;51.402;0.016;2022-07-23T06:42:28;18.30;93.80
24902;DHT22;31328;51.402;0.016;2022-07-23T06:44:58;18.30;93.70
24902;DHT22;31328;51.402;0.016;2022-07-23T06:47:25;18.40;93.70
24902;DHT22;31328;51.402;0.016;2022-07-23T06:49:51;18.40;93.60
24902;DHT22;31328;51.402;0.016;2022-07-23T06:52:17;18.50;93.60
24902;DHT22;31328;51.402;0.016;2022-07-23T06:54:44;18.50;93.50
24902;DHT22;31328;51.402;0.016;2022-07-23T06:57:10;18.50;93.40
24902;DHT22;31328;51.402;0.016;2022-07-23T06:59:37;18.60;93.30
24902;DHT22;31328;51.402;0.016;2022-07-23T07:02:09;18.70;93.20
24902;DHT22;31328;51.402;0.016;2022-07-23T07:04:36;18.70;93.10
24902;DHT22;31328;51.402;0.016;2022-07-23T07:07:02;18.80;93.10
24902;DHT22;31328;51.402;0.016;2022-07-23T07:09:29;18.80;93.00
24902;DHT22;31328;51.402;0.016;2022-07-23T07:11:55;18.90;93.00
24902;DHT22;31328;51.402;0.016;2022-07-23T07:14:22;18.90;92.90
24902;DHT22;31328;51.402;0.016;2022-07-23T07:16:49;19.00;92.80
24902;DHT22;31328;51.402;0.016;2022-07-23T07:19:15;19.00;92.70
24902;DHT22;31328;51.402;0.016;2022-07-23T07:21:42;19.10;92.60
24902;DHT22;31328;51.402;0.016;2022-07-23T07:24:09;19.10;92.50
24902;DHT22;31328;51.402;0.016;2022-07-23T07:26:36;19.20;92.50
24902;DHT22;31328;51.402;0.016;2022-07-23T07:29:05;19.20;92.40
24902;DHT22;31328;51.402;0.016;2022-07-23T07:31:32;19.20;92.30
24902;DHT22;31328;51.402;0.016;2022-07-23T07:34:02;19.30;92.30
24902;DHT22;31328;51.402;0.016;2022-07-23T07:36:30;19.30;92.20
24902;DHT22;31328;51.402;0.016;2022-07-23T07:38:57;19.30;92.10
24902;DHT22;31328;51.402;0.016;2022-07-23T07:41:23;19.30;92.00
24902;DHT22;31328;51.402;0.016;2022-07-23T07:43:50;19.40;91.90
24902;DHT22;31328;51.402;0.016;2022-07-23T07:46:17;19.40;91.80
24902;DHT22;31328;51.402;0.016;2022-07-23T07:48:43;19.40;91.70
24902;DHT22;31328;51.402;0.016;2022-07-23T07:51:10;19.40;91.50
24902;DHT22;31328;51.402;0.016;2022-07-23T07:53:36;19.40;91.50
24902;DHT22;31328;51.402;0.016;2022-07-23T07:56:02;19.50;91.30
24902;DHT22;31328;51.402;0.016;2022-07-23T07:58:29;19.50;91.30
24902;DHT22;31328;51.402;0.016;2022-07-23T08:00:55;19.60;91.20
24902;DHT22;31328;51.402;0.016;2022-07-23T08:03:21;19.60;91.00
24902;DHT22;31328;51.402;0.016;2022-07-23T08:05:48;19.70;91.00
24902;DHT22;31328;51.402;0.016;2022-07-23T08:08:14;19.70;90.90
24902;DHT22;31328;51.402;0.016;2022-07-23T08:10:41;19.80;90.90
24902;DHT22;31328;51.402;0.016;2022-07-23T08:13:13;19.80;90.80
24902;DHT22;31328;51.402;0.016;2022-07-23T08:15:40;19.90;90.70
24902;DHT22;31328;51.402;0.016;2022-07-23T08:18:07;19.90;90.60
24902;DHT22;31328;51.402;0.016;2022-07-23T08:20:33;19.90;90.40
24902;DHT22;31328;51.402;0.016;2022-07-23T08:23:04;20.00;90.30
24902;DHT22;31328;51.402;0.016;2022-07-23T08:25:33;20.00;90.10
24902;DHT22;31328;51.402;0.016;2022-07-23T08:28:02;20.10;90.00
24902;DHT22;31328;51.402;0.016;2022-07-23T08:30:30;20.20;89.70
24902;DHT22;31328;51.402;0.016;2022-07-23T08:33:08;20.30;89.40
24902;DHT22;31328;51.402;0.016;2022-07-23T08:35:39;20.40;89.20
24902;DHT22;31328;51.402;0.016;2022-07-23T08:38:07;20.50;88.90
24902;DHT22;31328;51.402;0.016;2022-07-23T08:40:36;20.70;88.50
24902;DHT22;31328;51.402;0.016;2022-07-23T08:43:06;20.80;88.10
24902;DHT22;31328;51.402;0.016;2022-07-23T08:45:38;21.10;87.70
24902;DHT22;31328;51.402;0.016;2022-07-23T08:48:08;21.30;86.70
24902;DHT22;31328;51.402;0.016;2022-07-23T08:50:36;21.50;85.90
24902;DHT22;31328;51.402;0.016;2022-07-23T08:53:06;21.70;85.10
24902;DHT22;31328;51.402;0.016;2022-07-23T08:55:32;21.80;84.40
24902;DHT22;31328;51.402;0.016;2022-07-23T08:57:58;21.90;84.30
24902;DHT22;31328;51.402;0.016;2022-07-23T09:00:25;22.00;83.90
24902;DHT22;31328;51.402;0.016;2022-07-23T09:02:52;22.10;83.40
24902;DHT22;31328;51.402;0.016;2022-07-23T09:05:19;22.20;82.60
24902;DHT22;31328;51.402;0.016;2022-07-23T09:13:32;22.50;80.60
24902;DHT22;31328;51.402;0.016;2022-07-23T09:16:07;22.60;80.20
24902;DHT22;31328;51.402;0.016;2022-07-23T09:18:40;22.70;79.70
24902;DHT22;31328;51.402;0.016;2022-07-23T09:21:08;22.80;78.70
24902;DHT22;31328;51.402;0.016;2022-07-23T09:23:44;22.80;78.00
24902;DHT22;31328;51.402;0.016;2022-07-23T09:36:40;23.20;76.80
24902;DHT22;31328;51.402;0.016;2022-07-23T09:39:07;23.40;76.40
24902;DHT22;31328;51.402;0.016;2022-07-23T09:41:36;23.40;75.90
24902;DHT22;31328;51.402;0.016;2022-07-23T09:44:15;23.50;75.80
24902;DHT22;31328;51.402;0.016;2022-07-23T09:46:43;23.60;75.20
24902;DHT22;31328;51.402;0.016;2022-07-23T09:51:58;23.80;74.30
24902;DHT22;31328;51.402;0.016;2022-07-23T09:54:34;23.80;73.30
24902;DHT22;31328;51.402;0.016;2022-07-23T09:57:09;23.90;73.30
24902;DHT22;31328;51.402;0.016;2022-07-23T09:59:39;24.00;72.30
24902;DHT22;31328;51.402;0.016;2022-07-23T10:02:09;24.10;72.30
24902;DHT22;31328;51.402;0.016;2022-07-23T10:04:52;24.10;72.00
24902;DHT22;31328;51.402;0.016;2022-07-23T10:07:49;24.10;71.20
24902;DHT22;31328;51.402;0.016;2022-07-23T10:10:35;24.20;70.60
24902;DHT22;31328;51.402;0.016;2022-07-23T10:13:20;24.30;70.50
24902;DHT22;31328;51.402;0.016;2022-07-23T10:15:53;24.30;70.70
24902;DHT22;31328;51.402;0.016;2022-07-23T10:18:20;24.30;70.10
24902;DHT22;31328;51.402;0.016;2022-07-23T10:20:47;24.40;69.50
24902;DHT22;31328;51.402;0.016;2022-07-23T10:23:24;24.40;69.20
24902;DHT22;31328;51.402;0.016;2022-07-23T10:26:19;24.50;68.80
24902;DHT22;31328;51.402;0.016;2022-07-23T10:29:02;24.50;67.10
24902;DHT22;31328;51.402;0.016;2022-07-23T10:37:16;24.80;67.30
24902;DHT22;31328;51.402;0.016;2022-07-23T10:42:44;25.00;65.80
24902;DHT22;31328;51.402;0.016;2022-07-23T10:45:33;25.00;65.60
24902;DHT22;31328;51.402;0.016;2022-07-23T10:50:43;25.10;64.40
24902;DHT22;31328;51.402;0.016;2022-07-23T10:53:12;25.20;64.60
24902;DHT22;31328;51.402;0.016;2022-07-23T10:55:42;25.20;63.40
24902;DHT22;31328;51.402;0.016;2022-07-23T10:58:09;25.30;62.70
24902;DHT22;31328;51.402;0.016;2022-07-23T11:00:36;25.30;62.40
24902;DHT22;31328;51.402;0.016;2022-07-23T11:03:29;25.40;61.20
24902;DHT22;31328;51.402;0.016;2022-07-23T11:05:58;25.40;60.80
24902;DHT22;31328;51.402;0.016;2022-07-23T11:08:25;25.50;61.60
24902;DHT22;31328;51.402;0.016;2022-07-23T11:16:15;25.70;59.90
24902;DHT22;31328;51.402;0.016;2022-07-23T11:26:55;25.80;57.90
24902;DHT22;31328;51.402;0.016;2022-07-23T11:34:40;25.90;57.70
24902;DHT22;31328;51.402;0.016;2022-07-23T11:37:09;26.00;57.20
24902;DHT22;31328;51.402;0.016;2022-07-23T11:39:37;26.10;57.50
24902;DHT22;31328;51.402;0.016;2022-07-23T11:42:05;26.10;57.20
24902;DHT22;31328;51.402;0.016;2022-07-23T11:44:34;26.20;56.40
24902;DHT22;31328;51.402;0.016;2022-07-23T11:47:09;26.20;56.10
24902;DHT22;31328;51.402;0.016;2022-07-23T11:49:36;26.30;55.70
24902;DHT22;31328;51.402;0.016;2022-07-23T11:54:52;26.40;55.40
24902;DHT22;31328;51.402;0.016;2022-07-23T11:57:20;26.40;54.80
24902;DHT22;31328;51.402;0.016;2022-07-23T11:59:50;26.40;54.70
24902;DHT22;31328;51.402;0.016;2022-07-23T12:02:18;26.50;54.50
24902;DHT22;31328;51.402;0.016;2022-07-23T12:04:47;26.50;54.70
24902;DHT22;31328;51.402;0.016;2022-07-23T12:07:28;26.50;54.70
24902;DHT22;31328;51.402;0.016;2022-07-23T12:09:57;26.50;54.00
24902;DHT22;31328;51.402;0.016;2022-07-23T12:12:24;26.60;54.00
24902;DHT22;31328;51.402;0.016;2022-07-23T12:14:59;26.60;53.70
24902;DHT22;31328;51.402;0.016;2022-07-23T12:17:30;26.70;53.30
24902;DHT22;31328;51.402;0.016;2022-07-23T12:19:58;26.70;53.20
24902;DHT22;31328;51.402;0.016;2022-07-23T12:22:26;26.70;53.20
24902;DHT22;31328;51.402;0.016;2022-07-23T12:25:02;26.70;53.20
24902;DHT22;31328;51.402;0.016;2022-07-23T12:27:30;26.80;52.40
24902;DHT22;31328;51.402;0.016;2022-07-23T12:29:57;26.80;51.80
24902;DHT22;31328;51.402;0.016;2022-07-23T12:32:28;26.80;52.00
24902;DHT22;31328;51.402;0.016;2022-07-23T12:35:06;26.80;51.80
24902;DHT22;31328;51.402;0.016;2022-07-23T12:37:35;26.80;51.80
24902;DHT22;31328;51.402;0.016;2022-07-23T12:40:28;26.90;51.70
24902;DHT22;31328;51.402;0.016;2022-07-23T12:43:00;26.90;51.20
24902;DHT22;31328;51.402;0.016;2022-07-23T12:45:28;26.90;51.40
24902;DHT22;31328;51.402;0.016;2022-07-23T12:48:07;27.00;51.30
24902;DHT22;31328;51.402;0.016;2022-07-23T12:53:09;27.10;51.30
24902;DHT22;31328;51.402;0.016;2022-07-23T12:55:37;27.10;51.00
24902;DHT22;31328;51.402;0.016;2022-07-23T12:58:19;27.10;50.80
24902;DHT22;31328;51.402;0.016;2022-07-23T13:05:48;27.30;50.20
24902;DHT22;31328;51.402;0.016;2022-07-23T13:08:15;27.30;49.90
24902;DHT22;31328;51.402;0.016;2022-07-23T13:10:41;27.30;49.70
24902;DHT22;31328;51.402;0.016;2022-07-23T13:13:10;27.40;49.80
24902;DHT22;31328;51.402;0.016;2022-07-23T13:15:37;27.40;49.40
24902;DHT22;31328;51.402;0.016;2022-07-23T13:18:03;27.40;49.40
24902;DHT22;31328;51.402;0.016;2022-07-23T13:20:31;27.50;49.50
24902;DHT22;31328;51.402;0.016;2022-07-23T13:22:58;27.60;48.60
24902;DHT22;31328;51.402;0.016;2022-07-23T13:25:26;27.60;48.70
24902;DHT22;31328;51.402;0.016;2022-07-23T13:27:52;27.60;48.50
24902;DHT22;31328;51.402;0.016;2022-07-23T13:30:19;27.70;48.60
24902;DHT22;31328;51.402;0.016;2022-07-23T13:32:45;27.70;48.20
24902;DHT22;31328;51.402;0.016;2022-07-23T13:35:13;27.70;48.30
24902;DHT22;31328;51.402;0.016;2022-07-23T13:37:40;27.80;48.20
24902;DHT22;31328;51.402;0.016;2022-07-23T13:40:07;27.80;48.40
24902;DHT22;31328;51.402;0.016;2022-07-23T13:42:34;27.80;48.10
24902;DHT22;31328;51.402;0.016;2022-07-23T13:45:00;27.90;47.90
24902;DHT22;31328;51.402;0.016;2022-07-23T13:47:27;27.90;47.80
24902;DHT22;31328;51.402;0.016;2022-07-23T13:49:53;27.90;47.50
24902;DHT22;31328;51.402;0.016;2022-07-23T13:52:19;27.90;47.50
24902;DHT22;31328;51.402;0.016;2022-07-23T13:54:46;27.90;47.50
24902;DHT22;31328;51.402;0.016;2022-07-23T13:57:12;27.90;47.30
24902;DHT22;31328;51.402;0.016;2022-07-23T13:59:39;27.90;47.00
24902;DHT22;31328;51.402;0.016;2022-07-23T14:02:05;27.90;47.10
24902;DHT22;31328;51.402;0.016;2022-07-23T14:04:33;27.90;47.10
24902;DHT22;31328;51.402;0.016;2022-07-23T14:06:59;27.90;47.10
24902;DHT22;31328;51.402;0.016;2022-07-23T14:09:26;27.90;47.20
24902;DHT22;31328;51.402;0.016;2022-07-23T14:11:53;27.90;47.30
24902;DHT22;31328;51.402;0.016;2022-07-23T14:14:19;28.00;47.30
24902;DHT22;31328;51.402;0.016;2022-07-23T14:16:46;27.90;47.50
24902;DHT22;31328;51.402;0.016;2022-07-23T14:19:12;27.90;47.50
24902;DHT22;31328;51.402;0.016;2022-07-23T14:21:38;27.90;47.60
24902;DHT22;31328;51.402;0.016;2022-07-23T14:24:05;27.90;48.10
24902;DHT22;31328;51.402;0.016;2022-07-23T14:26:31;27.90;47.50
24902;DHT22;31328;51.402;0.016;2022-07-23T14:28:58;27.90;48.30
24902;DHT22;31328;51.402;0.016;2022-07-23T14:31:24;27.80;47.90
24902;DHT22;31328;51.402;0.016;2022-07-23T14:33:51;27.80;48.10
24902;DHT22;31328;51.402;0.016;2022-07-23T14:36:17;27.80;48.10
24902;DHT22;31328;51.402;0.016;2022-07-23T14:38:43;27.70;48.20
24902;DHT22;31328;51.402;0.016;2022-07-23T14:41:10;27.70;48.50
24902;DHT22;31328;51.402;0.016;2022-07-23T14:43:37;27.60;48.50
24902;DHT22;31328;51.402;0.016;2022-07-23T14:46:03;27.50;48.70
24902;DHT22;31328;51.402;0.016;2022-07-23T14:48:30;27.40;48.80
24902;DHT22;31328;51.402;0.016;2022-07-23T14:50:56;27.20;49.10
24902;DHT22;31328;51.402;0.016;2022-07-23T14:53:23;27.10;49.50
24902;DHT22;31328;51.402;0.016;2022-07-23T14:55:49;27.00;50.30
24902;DHT22;31328;51.402;0.016;2022-07-23T14:58:16;26.90;49.80
24902;DHT22;31328;51.402;0.016;2022-07-23T15:00:43;26.80;50.00
24902;DHT22;31328;51.402;0.016;2022-07-23T15:03:10;26.70;50.40
24902;DHT22;31328;51.402;0.016;2022-07-23T15:05:36;26.60;50.70
24902;DHT22;31328;51.402;0.016;2022-07-23T15:08:02;26.60;50.80
24902;DHT22;31328;51.402;0.016;2022-07-23T15:10:29;26.60;50.90
24902;DHT22;31328;51.402;0.016;2022-07-23T15:12:55;26.60;50.90
24902;DHT22;31328;51.402;0.016;2022-07-23T15:15:22;26.60;51.10
24902;DHT22;31328;51.402;0.016;2022-07-23T15:17:48;26.50;51.30
24902;DHT22;31328;51.402;0.016;2022-07-23T15:20:15;26.50;51.60
24902;DHT22;31328;51.402;0.016;2022-07-23T15:22:41;26.40;51.80
24902;DHT22;31328;51.402;0.016;2022-07-23T15:25:08;26.40;52.00
24902;DHT22;31328;51.402;0.016;2022-07-23T15:27:34;26.40;52.10
24902;DHT22;31328;51.402;0.016;2022-07-23T15:30:01;26.40;52.30
24902;DHT22;31328;51.402;0.016;2022-07-23T15:32:27;26.30;52.30
24902;DHT22;31328;51.402;0.016;2022-07-23T15:34:54;26.20;52.50
24902;DHT22;31328;51.402;0.016;2022-07-23T15:37:21;26.20;52.80
24902;DHT22;31328;51.402;0.016;2022-07-23T15:39:49;26.20;52.90
24902;DHT22;31328;51.402;0.016;2022-07-23T15:42:16;26.20;53.10
24902;DHT22;31328;51.402;0.016;2022-07-23T15:44:43;26.20;53.40
24902;DHT22;31328;51.402;0.016;2022-07-23T15:47:12;26.30;53.60
24902;DHT22;31328;51.402;0.016;2022-07-23T15:49:40;26.40;53.50
24902;DHT22;31328;51.402;0.016;2022-07-23T15:52:06;26.30;53.60
24902;DHT22;31328;51.402;0.016;2022-07-23T15:54:36;26.30;53.80
24902;DHT22;31328;51.402;0.016;2022-07-23T15:57:03;26.20;54.00
24902;DHT22;31328;51.402;0.016;2022-07-23T15:59:30;26.10;54.30
24902;DHT22;31328;51.402;0.016;2022-07-23T16:01:57;26.00;54.30
24902;DHT22;31328;51.402;0.016;2022-07-23T16:04:24;26.00;54.60
24902;DHT22;31328;51.402;0.016;2022-07-23T16:06:51;25.90;54.70
24902;DHT22;31328;51.402;0.016;2022-07-23T16:09:18;25.90;54.80
24902;DHT22;31328;51.402;0.016;2022-07-23T16:11:44;25.90;55.00
24902;DHT22;31328;51.402;0.016;2022-07-23T16:14:10;26.00;55.30
24902;DHT22;31328;51.402;0.016;2022-07-23T16:16:37;26.10;55.20
24902;DHT22;31328;51.402;0.016;2022-07-23T16:19:04;26.10;55.20
24902;DHT22;31328;51.402;0.016;2022-07-23T16:21:30;26.10;55.10
24902;DHT22;31328;51.402;0.016;2022-07-23T16:23:57;26.20;55.20
24902;DHT22;31328;51.402;0.016;2022-07-23T16:26:23;26.10;55.00
24902;DHT22;31328;51.402;0.016;2022-07-23T16:28:50;26.10;55.10
24902;DHT22;31328;51.402;0.016;2022-07-23T16:31:17;25.90;55.20
24902;DHT22;31328;51.402;0.016;2022-07-23T16:33:43;25.90;55.40
24902;DHT22;31328;51.402;0.016;2022-07-23T16:36:10;25.90;55.60